sensor_id;sensor_type;location;lat;lon;timestamp;P1;durP1;ratioP1;P2;durP2;ratioP2
72797;SDS011;61084;55.816;37.036;2023-07-24T00:01:49;5.22;;;2.05;;
72797;SDS011;61084;55.816;37.036;2023-07-24T00:04:15;4.80;;;2.05;;
72797;SDS011;61084;55.816;37.036;2023-07-24T00:06:41;6.78;;;2.47;;
72797;SDS011;61084;55.816;37.036;2023-07-24T00:09:06;5.70;;;2.35;;
72797;SDS011;61084;55.816;37.036;2023-07-24T00:11:32;3.22;;;2.20;;
72797;SDS011;61084;55.816;37.036;2023-07-24T00:13:58;4.20;;;2.17;;
72797;SDS011;61084;55.816;37.036;2023-07-24T00:16:24;3.75;;;2.08;;
72797;SDS011;61084;55.816;37.036;2023-07-24T00:18:50;5.25;;;2.10;;
72797;SDS011;61084;55.816;37.036;2023-07-24T00:21:15;6.07;;;2.40;;
72797;SDS011;61084;55.816;37.036;2023-07-24T00:23:41;3.58;;;2.30;;
72797;SDS011;61084;55.816;37.036;2023-07-24T00:26:07;4.32;;;2.10;;
72797;SDS011;61084;55.816;37.036;2023-07-24T00:28:33;3.85;;;1.98;;
72797;SDS011;61084;55.816;37.036;2023-07-24T00:30:59;3.38;;;2.00;;
72797;SDS011;61084;55.816;37.036;2023-07-24T00:33:25;4.90;;;2.05;;
72797;SDS011;61084;55.816;37.036;2023-07-24T00:35:50;5.22;;;1.88;;
72797;SDS011;61084;55.816;37.036;2023-07-24T00:38:20;4.25;;;1.92;;
72797;SDS011;61084;55.816;37.036;2023-07-24T00:43:13;4.25;;;2.10;;
72797;SDS011;61084;55.816;37.036;2023-07-24T00:45:39;5.60;;;2.22;;
72797;SDS011;61084;55.816;37.036;2023-07-24T00:48:05;5.60;;;2.10;;
72797;SDS011;61084;55.816;37.036;2023-07-24T00:50:30;5.00;;;2.08;;
72797;SDS011;61084;55.816;37.036;2023-07-24T00:52:56;5.68;;;2.10;;
72797;SDS011;61084;55.816;37.036;2023-07-24T00:55:23;3.72;;;2.05;;
72797;SDS011;61084;55.816;37.036;2023-07-24T00:57:49;3.60;;;2.25;;
72797;SDS011;61084;55.816;37.036;2023-07-24T01:00:15;5.85;;;2.35;;
72797;SDS011;61084;55.816;37.036;2023-07-24T01:02:42;2.25;;;1.75;;
72797;SDS011;61084;55.816;37.036;2023-07-24T01:05:11;3.10;;;2.00;;
72797;SDS011;61084;55.816;37.036;2023-07-24T01:07:39;5.43;;;1.92;;
72797;SDS011;61084;55.816;37.036;2023-07-24T01:10:05;4.38;;;2.70;;
72797;SDS011;61084;55.816;37.036;2023-07-24T01:15:06;2.30;;;1.80;;
72797;SDS011;61084;55.816;37.036;2023-07-24T01:17:33;6.28;;;1.90;;
72797;SDS011;61084;55.816;37.036;2023-07-24T01:20:07;4.43;;;2.00;;
72797;SDS011;61084;55.816;37.036;2023-07-24T01:22:46;3.45;;;1.85;;
72797;SDS011;61084;55.816;37.036;2023-07-24T01:25:27;5.90;;;1.88;;
72797;SDS011;61084;55.816;37.036;2023-07-24T01:27:57;2.42;;;1.85;;
72797;SDS011;61084;55.816;37.036;2023-07-24T01:30:23;5.00;;;1.83;;
72797;SDS011;61084;55.816;37.036;2023-07-24T01:32:49;2.92;;;1.88;;
72797;SDS011;61084;55.816;37.036;2023-07-24T01:35:16;4.72;;;2.00;;
72797;SDS011;61084;55.816;37.036;2023-07-24T01:37:43;4.20;;;2.13;;
72797;SDS011;61084;55.816;37.036;2023-07-24T01:40:11;3.25;;;1.73;;
72797;SDS011;61084;55.816;37.036;2023-07-24T01:42:38;3.85;;;1.50;;
72797;SDS011;61084;55.816;37.036;2023-07-24T01:45:04;1.88;;;1.63;;
72797;SDS011;61084;55.816;37.036;2023-07-24T01:47:32;2.17;;;1.60;;
72797;SDS011;61084;55.816;37.036;2023-07-24T01:49:58;7.18;;;1.83;;
72797;SDS011;61084;55.816;37.036;2023-07-24T01:52:25;1.80;;;1.63;;
72797;SDS011;61084;55.816;37.036;2023-07-24T01:54:51;3.17;;;1.98;;
72797;SDS011;61084;55.816;37.036;2023-07-24T01:57:17;5.20;;;1.42;;
72797;SDS011;61084;55.816;37.036;2023-07-24T01:59:43;1.88;;;1.60;;
72797;SDS011;61084;55.816;37.036;2023-07-24T02:02:10;4.75;;;1.60;;
72797;SDS011;61084;55.816;37.036;2023-07-24T02:04:36;2.55;;;1.80;;
72797;SDS011;61084;55.816;37.036;2023-07-24T02:07:03;6.43;;;1.55;;
72797;SDS011;61084;55.816;37.036;2023-07-24T02:09:30;10.15;;;1.75;;
72797;SDS011;61084;55.816;37.036;2023-07-24T02:11:56;2.60;;;1.73;;
72797;SDS011;61084;55.816;37.036;2023-07-24T02:14:23;4.93;;;1.50;;
72797;SDS011;61084;55.816;37.036;2023-07-24T02:16:50;7.88;;;2.03;;
72797;SDS011;61084;55.816;37.036;2023-07-24T02:19:17;3.58;;;1.70;;
72797;SDS011;61084;55.816;37.036;2023-07-24T02:22:03;4.45;;;1.95;;
72797;SDS011;61084;55.816;37.036;2023-07-24T02:24:29;3.03;;;1.95;;
72797;SDS011;61084;55.816;37.036;2023-07-24T02:26:58;2.80;;;2.00;;
72797;SDS011;61084;55.816;37.036;2023-07-24T02:29:24;6.15;;;2.10;;
72797;SDS011;61084;55.816;37.036;2023-07-24T02:31:50;6.40;;;2.20;;
72797;SDS011;61084;55.816;37.036;2023-07-24T02:34:16;4.25;;;2.33;;
72797;SDS011;61084;55.816;37.036;2023-07-24T02:36:41;2.85;;;1.92;;
72797;SDS011;61084;55.816;37.036;2023-07-24T02:39:08;4.35;;;1.80;;
72797;SDS011;61084;55.816;37.036;2023-07-24T02:41:34;5.25;;;2.30;;
72797;SDS011;61084;55.816;37.036;2023-07-24T02:44:02;3.78;;;2.13;;
72797;SDS011;61084;55.816;37.036;2023-07-24T02:46:29;2.90;;;1.85;;
72797;SDS011;61084;55.816;37.036;2023-07-24T02:48:57;3.08;;;2.00;;
72797;SDS011;61084;55.816;37.036;2023-07-24T02:51:23;5.03;;;2.00;;
72797;SDS011;61084;55.816;37.036;2023-07-24T02:53:49;4.80;;;2.10;;
72797;SDS011;61084;55.816;37.036;2023-07-24T02:56:15;5.70;;;2.30;;
72797;SDS011;61084;55.816;37.036;2023-07-24T02:58:41;6.28;;;2.35;;
72797;SDS011;61084;55.816;37.036;2023-07-24T03:01:07;2.75;;;2.30;;
72797;SDS011;61084;55.816;37.036;2023-07-24T03:03:33;4.28;;;1.90;;
72797;SDS011;61084;55.816;37.036;2023-07-24T03:06:00;2.72;;;2.38;;
72797;SDS011;61084;55.816;37.036;2023-07-24T03:08:26;3.47;;;1.90;;
72797;SDS011;61084;55.816;37.036;2023-07-24T03:10:52;4.40;;;2.00;;
72797;SDS011;61084;55.816;37.036;2023-07-24T03:13:17;2.65;;;2.05;;
72797;SDS011;61084;55.816;37.036;2023-07-24T03:15:50;6.22;;;2.08;;
72797;SDS011;61084;55.816;37.036;2023-07-24T03:18:21;4.75;;;2.03;;
72797;SDS011;61084;55.816;37.036;2023-07-24T03:20:47;2.88;;;2.45;;
72797;SDS011;61084;55.816;37.036;2023-07-24T03:23:13;4.07;;;2.60;;
72797;SDS011;61084;55.816;37.036;2023-07-24T03:25:39;5.13;;;2.30;;
72797;SDS011;61084;55.816;37.036;2023-07-24T03:28:04;4.82;;;2.33;;
72797;SDS011;61084;55.816;37.036;2023-07-24T03:30:30;5.90;;;2.00;;
72797;SDS011;61084;55.816;37.036;2023-07-24T03:32:56;3.92;;;1.95;;
72797;SDS011;61084;55.816;37.036;2023-07-24T03:35:22;3.38;;;2.05;;
72797;SDS011;61084;55.816;37.036;2023-07-24T03:37:48;3.63;;;2.25;;
72797;SDS011;61084;55.816;37.036;2023-07-24T03:40:14;3.17;;;2.15;;
72797;SDS011;61084;55.816;37.036;2023-07-24T03:42:41;5.32;;;2.20;;
72797;SDS011;61084;55.816;37.036;2023-07-24T03:45:07;3.53;;;1.90;;
72797;SDS011;61084;55.816;37.036;2023-07-24T03:47:33;3.80;;;2.25;;
72797;SDS011;61084;55.816;37.036;2023-07-24T03:49:59;3.58;;;2.20;;
72797;SDS011;61084;55.816;37.036;2023-07-24T03:52:25;2.88;;;2.10;;
72797;SDS011;61084;55.816;37.036;2023-07-24T03:54:51;5.45;;;2.55;;
72797;SDS011;61084;55.816;37.036;2023-07-24T03:57:17;6.18;;;2.20;;
72797;SDS011;61084;55.816;37.036;2023-07-24T03:59:43;7.30;;;2.50;;
72797;SDS011;61084;55.816;37.036;2023-07-24T04:02:09;3.97;;;2.55;;
72797;SDS011;61084;55.816;37.036;2023-07-24T04:04:36;2.60;;;2.33;;
72797;SDS011;61084;55.816;37.036;2023-07-24T04:07:03;3.40;;;2.00;;
72797;SDS011;61084;55.816;37.036;2023-07-24T04:09:29;8.93;;;4.45;;
72797;SDS011;61084;55.816;37.036;2023-07-24T04:11:55;6.65;;;2.10;;
72797;SDS011;61084;55.816;37.036;2023-07-24T04:14:20;7.10;;;2.40;;
72797;SDS011;61084;55.816;37.036;2023-07-24T04:16:46;4.75;;;1.83;;
72797;SDS011;61084;55.816;37.036;2023-07-24T04:19:12;2.60;;;2.03;;
72797;SDS011;61084;55.816;37.036;2023-07-24T04:21:38;4.85;;;2.30;;
72797;SDS011;61084;55.816;37.036;2023-07-24T04:24:04;3.30;;;2.05;;
72797;SDS011;61084;55.816;37.036;2023-07-24T04:26:30;2.42;;;1.73;;
72797;SDS011;61084;55.816;37.036;2023-07-24T04:28:56;2.55;;;1.65;;
72797;SDS011;61084;55.816;37.036;2023-07-24T04:31:22;4.57;;;1.55;;
72797;SDS011;61084;55.816;37.036;2023-07-24T04:33:47;5.35;;;2.03;;
72797;SDS011;61084;55.816;37.036;2023-07-24T04:36:13;3.53;;;1.90;;
72797;SDS011;61084;55.816;37.036;2023-07-24T04:38:39;4.90;;;1.95;;
72797;SDS011;61084;55.816;37.036;2023-07-24T04:41:05;2.78;;;1.85;;
72797;SDS011;61084;55.816;37.036;2023-07-24T04:43:31;2.85;;;1.75;;
72797;SDS011;61084;55.816;37.036;2023-07-24T04:45:56;7.22;;;2.75;;
72797;SDS011;61084;55.816;37.036;2023-07-24T04:48:22;3.60;;;1.80;;
72797;SDS011;61084;55.816;37.036;2023-07-24T04:50:54;6.40;;;2.88;;
72797;SDS011;61084;55.816;37.036;2023-07-24T04:53:21;4.15;;;1.70;;
72797;SDS011;61084;55.816;37.036;2023-07-24T04:55:47;2.30;;;1.58;;
72797;SDS011;61084;55.816;37.036;2023-07-24T04:58:13;2.85;;;1.40;;
72797;SDS011;61084;55.816;37.036;2023-07-24T05:00:39;5.13;;;1.77;;
72797;SDS011;61084;55.816;37.036;2023-07-24T05:03:05;4.70;;;2.42;;
72797;SDS011;61084;55.816;37.036;2023-07-24T05:05:34;2.17;;;1.70;;
72797;SDS011;61084;55.816;37.036;2023-07-24T05:08:00;4.97;;;1.80;;
72797;SDS011;61084;55.816;37.036;2023-07-24T05:10:26;4.40;;;2.20;;
72797;SDS011;61084;55.816;37.036;2023-07-24T05:12:52;2.58;;;2.05;;
72797;SDS011;61084;55.816;37.036;2023-07-24T05:15:19;4.35;;;1.73;;
72797;SDS011;61084;55.816;37.036;2023-07-24T05:17:45;5.72;;;2.30;;
72797;SDS011;61084;55.816;37.036;2023-07-24T05:20:11;5.13;;;2.30;;
72797;SDS011;61084;55.816;37.036;2023-07-24T05:22:37;4.28;;;1.90;;
72797;SDS011;61084;55.816;37.036;2023-07-24T05:25:03;10.90;;;2.13;;
72797;SDS011;61084;55.816;37.036;2023-07-24T05:27:29;3.53;;;1.95;;
72797;SDS011;61084;55.816;37.036;2023-07-24T05:29:55;7.15;;;1.95;;
72797;SDS011;61084;55.816;37.036;2023-07-24T05:32:21;3.33;;;1.67;;
72797;SDS011;61084;55.816;37.036;2023-07-24T05:34:47;3.47;;;1.67;;
72797;SDS011;61084;55.816;37.036;2023-07-24T05:37:13;2.80;;;1.80;;
72797;SDS011;61084;55.816;37.036;2023-07-24T05:39:39;3.25;;;1.30;;
72797;SDS011;61084;55.816;37.036;2023-07-24T05:42:04;3.65;;;1.35;;
72797;SDS011;61084;55.816;37.036;2023-07-24T05:44:30;6.15;;;2.30;;
72797;SDS011;61084;55.816;37.036;2023-07-24T05:46:56;2.88;;;1.25;;
72797;SDS011;61084;55.816;37.036;2023-07-24T05:49:22;4.40;;;1.85;;
72797;SDS011;61084;55.816;37.036;2023-07-24T05:51:48;5.13;;;1.77;;
72797;SDS011;61084;55.816;37.036;2023-07-24T05:54:13;5.00;;;1.88;;
72797;SDS011;61084;55.816;37.036;2023-07-24T05:56:39;2.33;;;1.80;;
72797;SDS011;61084;55.816;37.036;2023-07-24T05:59:05;5.35;;;1.63;;
72797;SDS011;61084;55.816;37.036;2023-07-24T06:01:31;2.33;;;1.50;;
72797;SDS011;61084;55.816;37.036;2023-07-24T06:03:56;3.13;;;1.35;;
72797;SDS011;61084;55.816;37.036;2023-07-24T06:06:22;2.78;;;1.67;;
72797;SDS011;61084;55.816;37.036;2023-07-24T06:08:48;3.22;;;1.63;;
72797;SDS011;61084;55.816;37.036;2023-07-24T06:11:16;2.80;;;1.27;;
72797;SDS011;61084;55.816;37.036;2023-07-24T06:13:42;2.22;;;1.77;;
72797;SDS011;61084;55.816;37.036;2023-07-24T06:16:08;2.80;;;1.40;;
72797;SDS011;61084;55.816;37.036;2023-07-24T06:18:34;1.77;;;1.42;;
72797;SDS011;61084;55.816;37.036;2023-07-24T06:21:00;4.13;;;1.77;;
72797;SDS011;61084;55.816;37.036;2023-07-24T06:23:26;4.10;;;1.50;;
72797;SDS011;61084;55.816;37.036;2023-07-24T06:25:51;2.30;;;1.70;;
72797;SDS011;61084;55.816;37.036;2023-07-24T06:28:18;3.17;;;1.70;;
72797;SDS011;61084;55.816;37.036;2023-07-24T06:30:44;2.38;;;1.30;;
72797;SDS011;61084;55.816;37.036;2023-07-24T06:33:10;4.63;;;1.88;;
72797;SDS011;61084;55.816;37.036;2023-07-24T06:35:36;3.38;;;1.73;;
72797;SDS011;61084;55.816;37.036;2023-07-24T06:38:02;4.68;;;1.67;;
72797;SDS011;61084;55.816;37.036;2023-07-24T06:40:28;4.10;;;1.60;;
72797;SDS011;61084;55.816;37.036;2023-07-24T06:42:53;4.53;;;1.23;;
72797;SDS011;61084;55.816;37.036;2023-07-24T06:45:19;2.13;;;1.35;;
72797;SDS011;61084;55.816;37.036;2023-07-24T06:47:45;1.60;;;1.30;;
72797;SDS011;61084;55.816;37.036;2023-07-24T06:50:11;1.40;;;1.00;;
72797;SDS011;61084;55.816;37.036;2023-07-24T06:52:37;1.83;;;1.10;;
72797;SDS011;61084;55.816;37.036;2023-07-24T06:55:03;2.50;;;1.23;;
72797;SDS011;61084;55.816;37.036;2023-07-24T06:57:31;2.55;;;1.30;;
72797;SDS011;61084;55.816;37.036;2023-07-24T06:59:57;2.50;;;1.23;;
72797;SDS011;61084;55.816;37.036;2023-07-24T07:02:23;3.03;;;1.20;;
72797;SDS011;61084;55.816;37.036;2023-07-24T07:04:49;1.45;;;1.05;;
72797;SDS011;61084;55.816;37.036;2023-07-24T07:07:15;1.83;;;1.20;;
72797;SDS011;61084;55.816;37.036;2023-07-24T07:09:41;1.42;;;1.00;;
72797;SDS011;61084;55.816;37.036;2023-07-24T07:12:07;2.15;;;1.13;;
72797;SDS011;61084;55.816;37.036;2023-07-24T07:14:33;3.70;;;1.10;;
72797;SDS011;61084;55.816;37.036;2023-07-24T07:16:59;3.83;;;1.00;;
72797;SDS011;61084;55.816;37.036;2023-07-24T07:19:25;8.30;;;2.38;;
72797;SDS011;61084;55.816;37.036;2023-07-24T07:21:51;1.58;;;1.02;;
72797;SDS011;61084;55.816;37.036;2023-07-24T07:24:17;2.00;;;1.30;;
72797;SDS011;61084;55.816;37.036;2023-07-24T07:26:42;5.53;;;1.30;;
72797;SDS011;61084;55.816;37.036;2023-07-24T07:29:10;2.70;;;1.27;;
72797;SDS011;61084;55.816;37.036;2023-07-24T07:31:36;3.50;;;1.55;;
72797;SDS011;61084;55.816;37.036;2023-07-24T07:34:02;4.10;;;1.35;;
72797;SDS011;61084;55.816;37.036;2023-07-24T07:36:28;3.47;;;1.42;;
72797;SDS011;61084;55.816;37.036;2023-07-24T07:38:53;4.10;;;1.75;;
72797;SDS011;61084;55.816;37.036;2023-07-24T07:41:19;4.57;;;2.50;;
72797;SDS011;61084;55.816;37.036;2023-07-24T07:43:45;2.67;;;1.60;;
72797;SDS011;61084;55.816;37.036;2023-07-24T07:46:11;2.65;;;1.38;;
72797;SDS011;61084;55.816;37.036;2023-07-24T07:48:37;2.40;;;1.45;;
72797;SDS011;61084;55.816;37.036;2023-07-24T07:51:03;4.20;;;1.88;;
72797;SDS011;61084;55.816;37.036;2023-07-24T07:53:28;2.75;;;1.00;;
72797;SDS011;61084;55.816;37.036;2023-07-24T07:55:55;2.63;;;1.95;;
72797;SDS011;61084;55.816;37.036;2023-07-24T07:58:22;4.05;;;1.58;;
72797;SDS011;61084;55.816;37.036;2023-07-24T08:00:49;2.78;;;1.50;;
72797;SDS011;61084;55.816;37.036;2023-07-24T08:03:15;3.83;;;1.77;;
72797;SDS011;61084;55.816;37.036;2023-07-24T08:05:41;2.33;;;1.48;;
72797;SDS011;61084;55.816;37.036;2023-07-24T08:08:06;2.33;;;1.77;;
72797;SDS011;61084;55.816;37.036;2023-07-24T08:10:32;4.75;;;1.55;;
72797;SDS011;61084;55.816;37.036;2023-07-24T08:12:58;8.13;;;1.50;;
72797;SDS011;61084;55.816;37.036;2023-07-24T08:15:24;8.45;;;2.10;;
72797;SDS011;61084;55.816;37.036;2023-07-24T08:17:50;4.55;;;1.95;;
72797;SDS011;61084;55.816;37.036;2023-07-24T08:20:16;5.82;;;1.88;;
72797;SDS011;61084;55.816;37.036;2023-07-24T08:22:42;3.28;;;1.80;;
72797;SDS011;61084;55.816;37.036;2023-07-24T08:25:08;5.20;;;1.75;;
72797;SDS011;61084;55.816;37.036;2023-07-24T08:27:34;4.43;;;2.22;;
72797;SDS011;61084;55.816;37.036;2023-07-24T08:29:59;2.65;;;1.52;;
72797;SDS011;61084;55.816;37.036;2023-07-24T08:32:25;5.80;;;1.45;;
72797;SDS011;61084;55.816;37.036;2023-07-24T08:34:51;3.72;;;1.50;;
72797;SDS011;61084;55.816;37.036;2023-07-24T08:37:17;6.93;;;1.70;;
72797;SDS011;61084;55.816;37.036;2023-07-24T08:39:43;3.58;;;1.60;;
72797;SDS011;61084;55.816;37.036;2023-07-24T08:42:09;6.18;;;1.70;;
72797;SDS011;61084;55.816;37.036;2023-07-24T08:44:36;4.32;;;1.75;;
72797;SDS011;61084;55.816;37.036;2023-07-24T08:47:03;3.50;;;1.70;;
72797;SDS011;61084;55.816;37.036;2023-07-24T08:49:31;4.63;;;1.98;;
72797;SDS011;61084;55.816;37.036;2023-07-24T08:51:57;3.88;;;2.10;;
72797;SDS011;61084;55.816;37.036;2023-07-24T08:56:52;4.13;;;1.77;;
72797;SDS011;61084;55.816;37.036;2023-07-24T08:59:19;3.10;;;1.92;;
72797;SDS011;61084;55.816;37.036;2023-07-24T09:01:45;9.00;;;2.17;;
72797;SDS011;61084;55.816;37.036;2023-07-24T09:04:11;5.78;;;2.20;;
72797;SDS011;61084;55.816;37.036;2023-07-24T09:06:37;3.42;;;2.00;;
72797;SDS011;61084;55.816;37.036;2023-07-24T09:09:11;2.28;;;1.80;;
72797;SDS011;61084;55.816;37.036;2023-07-24T09:11:48;3.47;;;2.55;;
72797;SDS011;61084;55.816;37.036;2023-07-24T09:19:29;6.70;;;2.33;;
72797;SDS011;61084;55.816;37.036;2023-07-24T09:21:55;5.35;;;2.70;;
72797;SDS011;61084;55.816;37.036;2023-07-24T09:24:21;8.13;;;2.65;;
72797;SDS011;61084;55.816;37.036;2023-07-24T09:26:50;3.40;;;2.20;;
72797;SDS011;61084;55.816;37.036;2023-07-24T09:29:17;2.88;;;2.30;;
72797;SDS011;61084;55.816;37.036;2023-07-24T09:34:14;5.72;;;2.10;;
72797;SDS011;61084;55.816;37.036;2023-07-24T09:36:43;5.30;;;2.10;;
72797;SDS011;61084;55.816;37.036;2023-07-24T09:39:10;4.63;;;2.25;;
72797;SDS011;61084;55.816;37.036;2023-07-24T09:41:38;5.32;;;2.10;;
72797;SDS011;61084;55.816;37.036;2023-07-24T09:44:06;3.33;;;2.22;;
72797;SDS011;61084;55.816;37.036;2023-07-24T09:46:32;4.45;;;2.00;;
72797;SDS011;61084;55.816;37.036;2023-07-24T09:48:58;5.82;;;2.10;;
72797;SDS011;61084;55.816;37.036;2023-07-24T09:51:25;2.60;;;1.73;;
72797;SDS011;61084;55.816;37.036;2023-07-24T09:54:07;7.97;;;2.05;;
72797;SDS011;61084;55.816;37.036;2023-07-24T09:56:37;2.40;;;1.65;;
72797;SDS011;61084;55.816;37.036;2023-07-24T09:59:06;9.30;;;2.15;;
72797;SDS011;61084;55.816;37.036;2023-07-24T10:01:32;7.05;;;2.13;;
72797;SDS011;61084;55.816;37.036;2023-07-24T10:06:24;5.40;;;2.13;;
72797;SDS011;61084;55.816;37.036;2023-07-24T10:08:51;5.60;;;2.00;;
72797;SDS011;61084;55.816;37.036;2023-07-24T10:13:44;3.83;;;1.67;;
72797;SDS011;61084;55.816;37.036;2023-07-24T10:16:11;3.47;;;2.00;;
72797;SDS011;61084;55.816;37.036;2023-07-24T10:18:44;2.10;;;1.65;;
72797;SDS011;61084;55.816;37.036;2023-07-24T10:21:11;3.42;;;2.17;;
72797;SDS011;61084;55.816;37.036;2023-07-24T10:23:44;4.47;;;1.75;;
72797;SDS011;61084;55.816;37.036;2023-07-24T10:26:14;4.00;;;1.83;;
72797;SDS011;61084;55.816;37.036;2023-07-24T10:28:41;6.47;;;1.90;;
72797;SDS011;61084;55.816;37.036;2023-07-24T10:31:28;6.53;;;2.35;;
72797;SDS011;61084;55.816;37.036;2023-07-24T10:33:53;4.38;;;1.90;;
72797;SDS011;61084;55.816;37.036;2023-07-24T10:36:21;3.72;;;2.28;;
72797;SDS011;61084;55.816;37.036;2023-07-24T10:38:52;4.03;;;1.90;;
72797;SDS011;61084;55.816;37.036;2023-07-24T10:41:19;5.60;;;2.08;;
72797;SDS011;61084;55.816;37.036;2023-07-24T10:43:46;3.00;;;2.30;;
72797;SDS011;61084;55.816;37.036;2023-07-24T10:46:14;3.28;;;1.98;;
72797;SDS011;61084;55.816;37.036;2023-07-24T10:48:44;4.90;;;2.20;;
72797;SDS011;61084;55.816;37.036;2023-07-24T10:51:14;4.03;;;2.10;;
72797;SDS011;61084;55.816;37.036;2023-07-24T10:53:44;5.65;;;2.40;;
72797;SDS011;61084;55.816;37.036;2023-07-24T10:56:11;4.63;;;2.47;;
72797;SDS011;61084;55.816;37.036;2023-07-24T10:58:37;4.10;;;2.60;;
72797;SDS011;61084;55.816;37.036;2023-07-24T11:01:04;4.75;;;2.42;;
72797;SDS011;61084;55.816;37.036;2023-07-24T11:03:31;6.00;;;2.67;;
72797;SDS011;61084;55.816;37.036;2023-07-24T11:05:57;5.25;;;2.75;;
72797;SDS011;61084;55.816;37.036;2023-07-24T11:08:24;5.05;;;2.92;;
72797;SDS011;61084;55.816;37.036;2023-07-24T11:10:51;5.30;;;3.08;;
72797;SDS011;61084;55.816;37.036;2023-07-24T11:13:19;5.75;;;2.65;;
72797;SDS011;61084;55.816;37.036;2023-07-24T11:15:46;4.65;;;2.78;;
72797;SDS011;61084;55.816;37.036;2023-07-24T11:18:13;4.65;;;2.95;;
72797;SDS011;61084;55.816;37.036;2023-07-24T11:20:53;5.90;;;3.35;;
72797;SDS011;61084;55.816;37.036;2023-07-24T11:23:20;3.90;;;3.10;;
72797;SDS011;61084;55.816;37.036;2023-07-24T11:25:49;4.30;;;3.13;;
72797;SDS011;61084;55.816;37.036;2023-07-24T11:28:19;6.80;;;2.92;;
72797;SDS011;61084;55.816;37.036;2023-07-24T11:30:46;5.60;;;3.78;;
72797;SDS011;61084;55.816;37.036;2023-07-24T11:33:12;5.70;;;3.35;;
72797;SDS011;61084;55.816;37.036;2023-07-24T11:35:40;8.98;;;4.13;;
72797;SDS011;61084;55.816;37.036;2023-07-24T11:38:09;3.90;;;2.90;;
72797;SDS011;61084;55.816;37.036;2023-07-24T11:40:40;5.93;;;3.28;;
72797;SDS011;61084;55.816;37.036;2023-07-24T11:43:21;5.78;;;3.88;;
72797;SDS011;61084;55.816;37.036;2023-07-24T11:45:49;4.75;;;3.42;;
72797;SDS011;61084;55.816;37.036;2023-07-24T11:48:20;5.57;;;3.47;;
72797;SDS011;61084;55.816;37.036;2023-07-24T11:50:49;9.48;;;3.67;;
72797;SDS011;61084;55.816;37.036;2023-07-24T11:53:23;4.03;;;3.00;;
72797;SDS011;61084;55.816;37.036;2023-07-24T11:55:55;4.75;;;3.10;;
72797;SDS011;61084;55.816;37.036;2023-07-24T11:58:25;4.38;;;2.80;;
72797;SDS011;61084;55.816;37.036;2023-07-24T12:00:52;4.68;;;3.30;;
72797;SDS011;61084;55.816;37.036;2023-07-24T12:03:25;5.05;;;2.60;;
72797;SDS011;61084;55.816;37.036;2023-07-24T12:05:52;4.75;;;3.15;;
72797;SDS011;61084;55.816;37.036;2023-07-24T12:08:21;4.32;;;3.30;;
72797;SDS011;61084;55.816;37.036;2023-07-24T12:10:55;5.45;;;3.28;;
72797;SDS011;61084;55.816;37.036;2023-07-24T12:13:21;5.25;;;2.92;;
72797;SDS011;61084;55.816;37.036;2023-07-24T12:18:14;4.80;;;3.25;;
72797;SDS011;61084;55.816;37.036;2023-07-24T12:20:40;5.05;;;3.33;;
72797;SDS011;61084;55.816;37.036;2023-07-24T12:23:06;5.38;;;3.20;;
72797;SDS011;61084;55.816;37.036;2023-07-24T12:25:32;5.22;;;2.88;;
72797;SDS011;61084;55.816;37.036;2023-07-24T12:27:58;3.55;;;2.70;;
72797;SDS011;61084;55.816;37.036;2023-07-24T12:30:24;5.40;;;2.65;;
72797;SDS011;61084;55.816;37.036;2023-07-24T12:32:50;4.93;;;2.67;;
72797;SDS011;61084;55.816;37.036;2023-07-24T12:35:16;6.13;;;3.38;;
72797;SDS011;61084;55.816;37.036;2023-07-24T12:37:43;3.88;;;2.83;;
72797;SDS011;61084;55.816;37.036;2023-07-24T12:40:11;4.85;;;2.60;;
72797;SDS011;61084;55.816;37.036;2023-07-24T12:42:37;4.22;;;3.00;;
72797;SDS011;61084;55.816;37.036;2023-07-24T12:45:03;4.50;;;3.08;;
72797;SDS011;61084;55.816;37.036;2023-07-24T12:47:48;4.32;;;3.20;;
72797;SDS011;61084;55.816;37.036;2023-07-24T12:50:14;4.55;;;3.20;;
72797;SDS011;61084;55.816;37.036;2023-07-24T12:52:39;4.80;;;3.47;;
72797;SDS011;61084;55.816;37.036;2023-07-24T12:55:06;7.28;;;3.25;;
72797;SDS011;61084;55.816;37.036;2023-07-24T12:57:32;4.75;;;3.30;;
72797;SDS011;61084;55.816;37.036;2023-07-24T12:59:58;4.00;;;3.30;;
72797;SDS011;61084;55.816;37.036;2023-07-24T13:02:24;4.60;;;3.63;;
72797;SDS011;61084;55.816;37.036;2023-07-24T13:04:49;4.40;;;3.35;;
72797;SDS011;61084;55.816;37.036;2023-07-24T13:07:15;6.47;;;3.92;;
72797;SDS011;61084;55.816;37.036;2023-07-24T13:09:41;4.45;;;3.58;;
72797;SDS011;61084;55.816;37.036;2023-07-24T13:12:08;5.32;;;3.60;;
72797;SDS011;61084;55.816;37.036;2023-07-24T13:14:34;4.63;;;3.75;;
72797;SDS011;61084;55.816;37.036;2023-07-24T13:17:00;8.98;;;4.10;;
72797;SDS011;61084;55.816;37.036;2023-07-24T13:19:25;5.15;;;3.30;;
72797;SDS011;61084;55.816;37.036;2023-07-24T13:21:51;4.57;;;3.38;;
72797;SDS011;61084;55.816;37.036;2023-07-24T13:24:17;3.75;;;3.28;;
72797;SDS011;61084;55.816;37.036;2023-07-24T13:26:43;4.13;;;3.20;;
72797;SDS011;61084;55.816;37.036;2023-07-24T13:29:09;7.13;;;3.40;;
72797;SDS011;61084;55.816;37.036;2023-07-24T13:31:35;6.93;;;3.65;;
72797;SDS011;61084;55.816;37.036;2023-07-24T13:34:01;4.93;;;3.38;;
72797;SDS011;61084;55.816;37.036;2023-07-24T13:36:27;6.65;;;3.42;;
72797;SDS011;61084;55.816;37.036;2023-07-24T13:38:53;5.45;;;3.22;;
72797;SDS011;61084;55.816;37.036;2023-07-24T13:41:19;5.75;;;3.80;;
72797;SDS011;61084;55.816;37.036;2023-07-24T13:43:45;9.88;;;3.25;;
72797;SDS011;61084;55.816;37.036;2023-07-24T13:46:11;4.75;;;3.50;;
72797;SDS011;61084;55.816;37.036;2023-07-24T13:48:36;5.25;;;3.63;;
72797;SDS011;61084;55.816;37.036;2023-07-24T13:51:02;3.67;;;3.13;;
72797;SDS011;61084;55.816;37.036;2023-07-24T13:53:28;4.60;;;3.25;;
72797;SDS011;61084;55.816;37.036;2023-07-24T13:55:54;4.13;;;3.35;;
72797;SDS011;61084;55.816;37.036;2023-07-24T13:58:20;8.02;;;3.63;;
72797;SDS011;61084;55.816;37.036;2023-07-24T14:00:45;5.47;;;3.83;;
72797;SDS011;61084;55.816;37.036;2023-07-24T14:03:11;6.75;;;3.20;;
72797;SDS011;61084;55.816;37.036;2023-07-24T14:05:37;5.57;;;4.13;;
72797;SDS011;61084;55.816;37.036;2023-07-24T14:08:03;4.50;;;3.25;;
72797;SDS011;61084;55.816;37.036;2023-07-24T14:10:29;6.20;;;3.70;;
72797;SDS011;61084;55.816;37.036;2023-07-24T14:12:55;7.15;;;3.45;;
72797;SDS011;61084;55.816;37.036;2023-07-24T14:15:21;4.22;;;3.28;;
72797;SDS011;61084;55.816;37.036;2023-07-24T14:17:47;9.38;;;3.65;;
72797;SDS011;61084;55.816;37.036;2023-07-24T14:20:12;5.25;;;3.10;;
72797;SDS011;61084;55.816;37.036;2023-07-24T14:22:38;5.10;;;3.58;;
72797;SDS011;61084;55.816;37.036;2023-07-24T14:25:04;5.25;;;3.45;;
72797;SDS011;61084;55.816;37.036;2023-07-24T14:27:34;5.93;;;3.83;;
72797;SDS011;61084;55.816;37.036;2023-07-24T14:30:00;4.28;;;2.97;;
72797;SDS011;61084;55.816;37.036;2023-07-24T14:32:26;4.63;;;3.30;;
72797;SDS011;61084;55.816;37.036;2023-07-24T14:34:52;6.90;;;2.92;;
72797;SDS011;61084;55.816;37.036;2023-07-24T14:37:18;3.90;;;3.17;;
72797;SDS011;61084;55.816;37.036;2023-07-24T14:42:10;5.40;;;3.33;;
72797;SDS011;61084;55.816;37.036;2023-07-24T14:44:37;5.45;;;3.42;;
72797;SDS011;61084;55.816;37.036;2023-07-24T14:47:03;6.68;;;3.60;;
72797;SDS011;61084;55.816;37.036;2023-07-24T14:49:29;5.10;;;3.00;;
72797;SDS011;61084;55.816;37.036;2023-07-24T14:51:55;5.72;;;3.22;;
72797;SDS011;61084;55.816;37.036;2023-07-24T14:54:21;7.32;;;3.10;;
72797;SDS011;61084;55.816;37.036;2023-07-24T14:56:46;4.00;;;3.03;;